sensor_id;sensor_type;location;lat;lon;timestamp;pressure;altitude;pressure_sealevel;temperature;humidity
12913;BME280;6524;51.368;11.984;2023-12-04T00:04:02;150387.63;;;-4.95;67.38
12913;BME280;6524;51.368;11.984;2023-12-04T00:09:05;150350.25;;;-5.10;67.37
12913;BME280;6524;51.368;11.984;2023-12-04T00:14:05;150413.38;;;-4.85;67.07
12913;BME280;6524;51.368;11.984;2023-12-04T00:19:06;150471.41;;;-4.62;66.10
12913;BME280;6524;51.368;11.984;2023-12-04T00:24:07;150551.31;;;-4.30;64.86
12913;BME280;6524;51.368;11.984;2023-12-04T00:29:07;150544.88;;;-4.33;65.03
12913;BME280;6524;51.368;11.984;2023-12-04T00:34:07;150552.59;;;-4.30;65.23
12913;BME280;6524;51.368;11.984;2023-12-04T00:39:08;150549.97;;;-4.31;64.83
12913;BME280;6524;51.368;11.984;2023-12-04T00:44:08;150512.66;;;-4.46;65.20
12913;BME280;6524;51.368;11.984;2023-12-04T00:49:08;150614.50;;;-4.05;64.94
12913;BME280;6524;51.368;11.984;2023-12-04T00:54:09;150636.38;;;-3.97;64.70
12913;BME280;6524;51.368;11.984;2023-12-04T00:59:09;150631.25;;;-3.99;64.93
12913;BME280;6524;51.368;11.984;2023-12-04T05:03:15;150721.50;;;-3.63;62.23
12913;BME280;6524;51.368;11.984;2023-12-04T05:08:15;150751.19;;;-3.51;62.31
12913;BME280;6524;51.368;11.984;2023-12-04T05:13:16;150740.88;;;-3.55;62.47
12913;BME280;6524;51.368;11.984;2023-12-04T05:18:16;150721.50;;;-3.63;62.34
12913;BME280;6524;51.368;11.984;2023-12-04T05:23:16;150708.63;;;-3.68;62.78
12913;BME280;6524;51.368;11.984;2023-12-04T05:28:17;150698.28;;;-3.72;62.86
12913;BME280;6524;51.368;11.984;2023-12-04T05:33:17;150757.63;;;-3.49;61.90
12913;BME280;6524;51.368;11.984;2023-12-04T05:38:24;150773.13;;;-3.42;62.33
12913;BME280;6524;51.368;11.984;2023-12-04T05:43:32;150695.72;;;-3.73;62.41
12913;BME280;6524;51.368;11.984;2023-12-04T05:48:32;150780.84;;;-3.39;62.90
12913;BME280;6524;51.368;11.984;2023-12-04T05:53:33;150687.97;;;-3.76;63.24
12913;BME280;6524;51.368;11.984;2023-12-04T05:58:33;150693.16;;;-3.74;62.99
12913;BME280;6524;51.368;11.984;2023-12-04T06:03:33;150657.03;;;-3.88;63.52
12913;BME280;6524;51.368;11.984;2023-12-04T06:08:34;150666.03;;;-3.85;62.69
12913;BME280;6524;51.368;11.984;2023-12-04T06:13:34;150642.81;;;-3.94;63.44
12913;BME280;6524;51.368;11.984;2023-12-04T06:18:34;150620.91;;;-4.03;63.58
12913;BME280;6524;51.368;11.984;2023-12-04T06:23:35;150693.16;;;-3.74;62.65
12913;BME280;6524;51.368;11.984;2023-12-04T06:28:35;150734.41;;;-3.58;61.78
12913;BME280;6524;51.368;11.984;2023-12-04T06:33:36;150780.84;;;-3.39;62.12
12913;BME280;6524;51.368;11.984;2023-12-04T06:38:39;150704.75;;;-3.70;62.74
12913;BME280;6524;51.368;11.984;2023-12-04T06:43:40;150734.41;;;-3.58;62.36
12913;BME280;6524;51.368;11.984;2023-12-04T06:48:42;150775.69;;;-3.41;61.27
12913;BME280;6524;51.368;11.984;2023-12-04T06:53:43;150747.28;;;-3.53;61.96
12913;BME280;6524;51.368;11.984;2023-12-04T06:58:43;150713.75;;;-3.66;62.32
12913;BME280;6524;51.368;11.984;2023-12-04T07:03:44;150752.47;;;-3.51;61.59
12913;BME280;6524;51.368;11.984;2023-12-04T07:08:44;150778.25;;;-3.40;61.71
12913;BME280;6524;51.368;11.984;2023-12-04T07:13:44;150805.38;;;-3.30;61.58
12913;BME280;6524;51.368;11.984;2023-12-04T07:18:45;150762.75;;;-3.47;62.07
12913;BME280;6524;51.368;11.984;2023-12-04T07:23:45;150800.19;;;-3.32;62.00
12913;BME280;6524;51.368;11.984;2023-12-04T07:28:45;150836.34;;;-3.17;61.11
12913;BME280;6524;51.368;11.984;2023-12-04T07:33:46;150860.84;;;-3.08;62.04
12913;BME280;6524;51.368;11.984;2023-12-04T07:38:46;150951.19;;;-2.72;62.28
12913;BME280;6524;51.368;11.984;2023-12-04T07:43:47;150991.19;;;-2.56;61.15
12913;BME280;6524;51.368;11.984;2023-12-04T07:48:47;150992.47;;;-2.56;59.65
12913;BME280;6524;51.368;11.984;2023-12-04T07:53:47;150993.81;;;-2.55;59.27
12913;BME280;6524;51.368;11.984;2023-12-04T07:58:48;150961.53;;;-2.68;58.50
12913;BME280;6524;51.368;11.984;2023-12-04T08:03:48;150920.19;;;-2.84;59.05
12913;BME280;6524;51.368;11.984;2023-12-04T08:08:48;150974.41;;;-2.63;57.96
12913;BME280;6524;51.368;11.984;2023-12-04T08:13:49;150940.88;;;-2.76;57.80
12913;BME280;6524;51.368;11.984;2023-12-04T08:18:49;150898.28;;;-2.93;58.16
12913;BME280;6524;51.368;11.984;2023-12-04T08:23:50;150974.41;;;-2.63;57.57
12913;BME280;6524;51.368;11.984;2023-12-04T08:28:53;150909.88;;;-2.88;58.16
12913;BME280;6524;51.368;11.984;2023-12-04T08:33:54;150966.66;;;-2.66;57.64
12913;BME280;6524;51.368;11.984;2023-12-04T08:38:54;150982.16;;;-2.60;57.55
12913;BME280;6524;51.368;11.984;2023-12-04T08:43:54;150942.16;;;-2.76;57.24
12913;BME280;6524;51.368;11.984;2023-12-04T08:48:55;151071.25;;;-2.24;56.16
12913;BME280;6524;51.368;11.984;2023-12-04T08:53:56;151064.81;;;-2.27;56.09
12913;BME280;6524;51.368;11.984;2023-12-04T08:58:57;151037.69;;;-2.38;56.08
12913;BME280;6524;51.368;11.984;2023-12-04T09:03:58;151128.09;;;-2.02;55.70
12913;BME280;6524;51.368;11.984;2023-12-04T09:08:58;151131.97;;;-2.00;55.39
12913;BME280;6524;51.368;11.984;2023-12-04T09:13:58;151077.72;;;-2.22;55.70
12913;BME280;6524;51.368;11.984;2023-12-04T09:18:59;151160.41;;;-1.89;54.90
12913;BME280;6524;51.368;11.984;2023-12-04T09:23:59;151157.78;;;-1.90;54.71
12913;BME280;6524;51.368;11.984;2023-12-04T09:29:00;151097.09;;;-2.14;54.34
12913;BME280;6524;51.368;11.984;2023-12-04T09:34:00;151221.06;;;-1.65;54.95
12913;BME280;6524;51.368;11.984;2023-12-04T09:39:00;151218.50;;;-1.66;54.31
12913;BME280;6524;51.368;11.984;2023-12-04T09:44:01;151187.50;;;-1.78;54.33
12913;BME280;6524;51.368;11.984;2023-12-04T09:49:02;151212.03;;;-1.69;54.13
12913;BME280;6524;51.368;11.984;2023-12-04T09:54:03;151328.34;;;-1.23;53.63
12913;BME280;6524;51.368;11.984;2023-12-04T09:59:07;151392.97;;;-0.97;52.77
12913;BME280;6524;51.368;11.984;2023-12-04T10:04:08;151431.75;;;-0.82;52.48
12913;BME280;6524;51.368;11.984;2023-12-04T10:09:11;151557.22;;;-0.32;52.22
12913;BME280;6524;51.368;11.984;2023-12-04T10:14:21;151443.38;;;-0.77;51.90
12913;BME280;6524;51.368;11.984;2023-12-04T10:19:23;151408.50;;;-0.91;52.41
12913;BME280;6524;51.368;11.984;2023-12-04T10:24:34;151359.38;;;-1.10;53.33
12913;BME280;6524;51.368;11.984;2023-12-04T10:29:49;151424.00;;;-0.85;52.44
12913;BME280;6524;51.368;11.984;2023-12-04T10:34:54;151390.41;;;-0.98;52.98
12913;BME280;6524;51.368;11.984;2023-12-04T10:39:56;151451.13;;;-0.74;52.79
12913;BME280;6524;51.368;11.984;2023-12-04T10:45:03;151501.59;;;-0.54;53.13
12913;BME280;6524;51.368;11.984;2023-12-04T10:50:06;151473.13;;;-0.66;52.50
12913;BME280;6524;51.368;11.984;2023-12-04T10:55:10;151488.66;;;-0.59;51.96
12913;BME280;6524;51.368;11.984;2023-12-04T11:00:11;151491.22;;;-0.58;51.70
12913;BME280;6524;51.368;11.984;2023-12-04T11:05:18;151545.53;;;-0.37;51.05
12913;BME280;6524;51.368;11.984;2023-12-04T11:10:22;151576.59;;;-0.25;49.97
12913;BME280;6524;51.368;11.984;2023-12-04T11:15:25;151471.84;;;-0.66;51.53
12913;BME280;6524;51.368;11.984;2023-12-04T11:20:29;151505.47;;;-0.53;51.08
12913;BME280;6524;51.368;11.984;2023-12-04T11:25:32;151470.56;;;-0.67;51.63
12913;BME280;6524;51.368;11.984;2023-12-04T11:30:35;151361.94;;;-1.09;53.50
12913;BME280;6524;51.368;11.984;2023-12-04T11:35:38;151422.72;;;-0.85;52.74
12913;BME280;6524;51.368;11.984;2023-12-04T11:40:42;151421.44;;;-0.86;52.36
12913;BME280;6524;51.368;11.984;2023-12-04T11:45:47;151504.16;;;-0.53;51.52
12913;BME280;6524;51.368;11.984;2023-12-04T11:50:48;151493.84;;;-0.57;51.77
12913;BME280;6524;51.368;11.984;2023-12-04T11:55:48;151537.78;;;-0.40;51.59
12913;BME280;6524;51.368;11.984;2023-12-04T12:00:49;151589.53;;;-0.20;51.51
12913;BME280;6524;51.368;11.984;2023-12-04T12:05:51;151558.50;;;-0.32;52.11
12913;BME280;6524;51.368;11.984;2023-12-04T12:10:52;151576.59;;;-0.25;52.27
12913;BME280;6524;51.368;11.984;2023-12-04T12:15:54;151475.69;;;-0.64;52.25
12913;BME280;6524;51.368;11.984;2023-12-04T12:20:58;151429.19;;;-0.83;52.42
12913;BME280;6524;51.368;11.984;2023-12-04T12:25:59;151486.09;;;-0.60;53.41
12913;BME280;6524;51.368;11.984;2023-12-04T12:31:03;151548.16;;;-0.36;52.51
12913;BME280;6524;51.368;11.984;2023-12-04T12:36:04;151434.34;;;-0.81;53.34
12913;BME280;6524;51.368;11.984;2023-12-04T12:41:06;151395.56;;;-0.96;54.33
12913;BME280;6524;51.368;11.984;2023-12-04T12:46:27;151444.72;;;-0.77;54.68
12913;BME280;6524;51.368;11.984;2023-12-04T12:51:29;151470.56;;;-0.67;54.12
12913;BME280;6524;51.368;11.984;2023-12-04T12:56:29;151537.78;;;-0.40;54.70
12913;BME280;6524;51.368;11.984;2023-12-04T13:01:32;151508.03;;;-0.52;54.37
12913;BME280;6524;51.368;11.984;2023-12-04T13:06:33;151555.94;;;-0.33;54.01
12913;BME280;6524;51.368;11.984;2023-12-04T13:11:34;151470.56;;;-0.67;55.15
12913;BME280;6524;51.368;11.984;2023-12-04T13:16:34;151462.81;;;-0.70;55.93
12913;BME280;6524;51.368;11.984;2023-12-04T13:21:34;151473.13;;;-0.66;55.22
12913;BME280;6524;51.368;11.984;2023-12-04T13:26:35;151436.97;;;-0.80;55.34
12913;BME280;6524;51.368;11.984;2023-12-04T13:31:35;151482.19;;;-0.62;56.09
12913;BME280;6524;51.368;11.984;2023-12-04T13:36:36;151480.88;;;-0.62;56.70
12913;BME280;6524;51.368;11.984;2023-12-04T13:41:37;151400.75;;;-0.94;56.44
12913;BME280;6524;51.368;11.984;2023-12-04T13:46:56;151486.09;;;-0.60;56.34
12913;BME280;6524;51.368;11.984;2023-12-04T13:51:56;151530.03;;;-0.43;55.80
12913;BME280;6524;51.368;11.984;2023-12-04T13:56:58;151435.63;;;-0.80;56.85
12913;BME280;6524;51.368;11.984;2023-12-04T14:02:00;151488.66;;;-0.59;56.67
12913;BME280;6524;51.368;11.984;2023-12-04T14:07:04;151492.56;;;-0.58;56.12
12913;BME280;6524;51.368;11.984;2023-12-04T14:12:06;151502.88;;;-0.54;56.34
12913;BME280;6524;51.368;11.984;2023-12-04T14:17:07;151542.97;;;-0.38;56.96
12913;BME280;6524;51.368;11.984;2023-12-04T14:22:09;151411.06;;;-0.90;57.88
12913;BME280;6524;51.368;11.984;2023-12-04T14:27:09;151440.81;;;-0.78;57.20
12913;BME280;6524;51.368;11.984;2023-12-04T14:32:10;151449.84;;;-0.75;57.10
12913;BME280;6524;51.368;11.984;2023-12-04T14:37:10;151416.25;;;-0.88;57.03
12913;BME280;6524;51.368;11.984;2023-12-04T14:42:10;151413.69;;;-0.89;58.09
12913;BME280;6524;51.368;11.984;2023-12-04T14:47:11;151456.31;;;-0.72;58.06
12913;BME280;6524;51.368;11.984;2023-12-04T14:52:12;151460.19;;;-0.71;57.54
12913;BME280;6524;51.368;11.984;2023-12-04T14:57:13;151480.88;;;-0.62;57.79
12913;BME280;6524;51.368;11.984;2023-12-04T15:02:19;151486.09;;;-0.60;57.52
12913;BME280;6524;51.368;11.984;2023-12-04T15:07:37;151457.63;;;-0.72;58.66
12913;BME280;6524;51.368;11.984;2023-12-04T15:13:06;151498.97;;;-0.55;57.78
12913;BME280;6524;51.368;11.984;2023-12-04T15:18:07;151486.09;;;-0.60;58.66
12913;BME280;6524;51.368;11.984;2023-12-04T15:23:26;151442.09;;;-0.78;58.70
12913;BME280;6524;51.368;11.984;2023-12-04T15:28:27;151480.88;;;-0.62;58.01
12913;BME280;6524;51.368;11.984;2023-12-04T15:33:27;151444.72;;;-0.77;58.13
12913;BME280;6524;51.368;11.984;2023-12-04T15:38:28;151440.81;;;-0.78;58.41
12913;BME280;6524;51.368;11.984;2023-12-04T15:43:29;151442.09;;;-0.78;58.80
12913;BME280;6524;51.368;11.984;2023-12-04T15:48:30;151424.00;;;-0.85;58.19
12913;BME280;6524;51.368;11.984;2023-12-04T15:53:30;151420.09;;;-0.86;57.96
12913;BME280;6524;51.368;11.984;2023-12-04T15:58:31;151351.63;;;-1.14;57.76
12913;BME280;6524;51.368;11.984;2023-12-04T16:03:34;151392.97;;;-0.97;57.19
12913;BME280;6524;51.368;11.984;2023-12-04T16:08:35;151328.34;;;-1.23;58.00
12913;BME280;6524;51.368;11.984;2023-12-04T16:13:35;151408.50;;;-0.91;57.17
12913;BME280;6524;51.368;11.984;2023-12-04T16:18:36;151462.81;;;-0.70;56.95
12913;BME280;6524;51.368;11.984;2023-12-04T16:23:37;151448.56;;;-0.75;57.56
12913;BME280;6524;51.368;11.984;2023-12-04T16:28:38;151480.88;;;-0.62;57.22
12913;BME280;6524;51.368;11.984;2023-12-04T16:33:39;151421.44;;;-0.86;57.34
12913;BME280;6524;51.368;11.984;2023-12-04T16:38:39;151425.28;;;-0.84;58.22
12913;BME280;6524;51.368;11.984;2023-12-04T16:43:40;151403.31;;;-0.93;58.50
12913;BME280;6524;51.368;11.984;2023-12-04T16:48:44;151429.19;;;-0.83;58.33
12913;BME280;6524;51.368;11.984;2023-12-04T16:53:45;151400.75;;;-0.94;58.54
12913;BME280;6524;51.368;11.984;2023-12-04T16:58:45;151426.59;;;-0.84;58.68
12913;BME280;6524;51.368;11.984;2023-12-04T17:03:45;151355.47;;;-1.12;58.45
12913;BME280;6524;51.368;11.984;2023-12-04T17:08:46;151363.22;;;-1.09;58.45
12913;BME280;6524;51.368;11.984;2023-12-04T17:13:46;151360.66;;;-1.10;58.52
12913;BME280;6524;51.368;11.984;2023-12-04T17:18:47;151358.09;;;-1.11;58.91
12913;BME280;6524;51.368;11.984;2023-12-04T17:23:48;151372.28;;;-1.05;58.92
12913;BME280;6524;51.368;11.984;2023-12-04T17:28:48;151392.97;;;-0.97;58.71
12913;BME280;6524;51.368;11.984;2023-12-04T17:33:49;151367.13;;;-1.07;57.80
12913;BME280;6524;51.368;11.984;2023-12-04T17:38:49;151365.84;;;-1.08;57.97
12913;BME280;6524;51.368;11.984;2023-12-04T17:43:50;151270.16;;;-1.46;58.44
12913;BME280;6524;51.368;11.984;2023-12-04T17:48:51;151364.53;;;-1.08;58.26
12913;BME280;6524;51.368;11.984;2023-12-04T17:53:52;151364.53;;;-1.08;58.49
12913;BME280;6524;51.368;11.984;2023-12-04T17:58:52;151405.91;;;-0.92;58.46
12913;BME280;6524;51.368;11.984;2023-12-04T18:03:53;151363.22;;;-1.09;58.48
12913;BME280;6524;51.368;11.984;2023-12-04T18:08:53;151391.69;;;-0.98;59.44
12913;BME280;6524;51.368;11.984;2023-12-04T18:13:54;151387.78;;;-0.99;60.33
12913;BME280;6524;51.368;11.984;2023-12-04T18:18:55;151336.13;;;-1.20;60.85
12913;BME280;6524;51.368;11.984;2023-12-04T18:23:56;151347.72;;;-1.15;60.01
12913;BME280;6524;51.368;11.984;2023-12-04T18:28:57;151318.03;;;-1.27;59.58
12913;BME280;6524;51.368;11.984;2023-12-04T18:33:59;151341.25;;;-1.18;59.42
12913;BME280;6524;51.368;11.984;2023-12-04T18:39:01;151343.88;;;-1.17;59.34
12913;BME280;6524;51.368;11.984;2023-12-04T18:44:01;151343.88;;;-1.17;59.14
12913;BME280;6524;51.368;11.984;2023-12-04T18:49:02;151367.13;;;-1.07;59.57
12913;BME280;6524;51.368;11.984;2023-12-04T18:54:04;151328.34;;;-1.23;59.66
12913;BME280;6524;51.368;11.984;2023-12-04T18:59:05;151391.69;;;-0.98;58.99
12913;BME280;6524;51.368;11.984;2023-12-04T19:04:05;151377.47;;;-1.03;58.69
12913;BME280;6524;51.368;11.984;2023-12-04T19:09:06;151440.81;;;-0.78;58.72
12913;BME280;6524;51.368;11.984;2023-12-04T19:14:07;151422.72;;;-0.85;58.82
12913;BME280;6524;51.368;11.984;2023-12-04T19:19:07;151351.63;;;-1.14;59.00
12913;BME280;6524;51.368;11.984;2023-12-04T19:24:12;151355.47;;;-1.12;59.56
12913;BME280;6524;51.368;11.984;2023-12-04T19:29:13;151354.19;;;-1.13;59.54
12913;BME280;6524;51.368;11.984;2023-12-04T19:34:13;151356.75;;;-1.12;60.05
12913;BME280;6524;51.368;11.984;2023-12-04T19:39:15;151372.28;;;-1.05;60.28
12913;BME280;6524;51.368;11.984;2023-12-04T19:44:16;151307.66;;;-1.31;60.51
12913;BME280;6524;51.368;11.984;2023-12-04T19:49:16;151343.88;;;-1.17;60.30
12913;BME280;6524;51.368;11.984;2023-12-04T19:54:16;151325.75;;;-1.24;60.22
12913;BME280;6524;51.368;11.984;2023-12-04T19:59:17;151290.88;;;-1.38;60.03
12913;BME280;6524;51.368;11.984;2023-12-04T20:04:17;151333.50;;;-1.21;60.46
12913;BME280;6524;51.368;11.984;2023-12-04T20:09:17;151315.41;;;-1.28;60.16
12913;BME280;6524;51.368;11.984;2023-12-04T20:14:18;151281.81;;;-1.41;60.40
12913;BME280;6524;51.368;11.984;2023-12-04T20:19:20;151271.50;;;-1.45;60.52
12913;BME280;6524;51.368;11.984;2023-12-04T20:24:20;151367.13;;;-1.07;59.66
12913;BME280;6524;51.368;11.984;2023-12-04T20:29:20;151333.50;;;-1.21;59.85
12913;BME280;6524;51.368;11.984;2023-12-04T20:34:21;151305.09;;;-1.32;60.06
12913;BME280;6524;51.368;11.984;2023-12-04T20:39:21;151289.56;;;-1.38;59.86
12913;BME280;6524;51.368;11.984;2023-12-04T20:44:22;151343.88;;;-1.17;59.40
12913;BME280;6524;51.368;11.984;2023-12-04T20:49:23;151359.38;;;-1.10;59.83
12913;BME280;6524;51.368;11.984;2023-12-04T20:54:24;151424.00;;;-0.85;59.42
12913;BME280;6524;51.368;11.984;2023-12-04T20:59:24;151403.31;;;-0.93;59.12
12913;BME280;6524;51.368;11.984;2023-12-04T21:04:25;151395.56;;;-0.96;59.57
12913;BME280;6524;51.368;11.984;2023-12-04T21:09:25;151392.97;;;-0.97;60.02
12913;BME280;6524;51.368;11.984;2023-12-04T21:14:25;151386.50;;;-1.00;59.48
12913;BME280;6524;51.368;11.984;2023-12-04T21:19:26;151342.59;;;-1.17;60.15
12913;BME280;6524;51.368;11.984;2023-12-04T21:24:26;151380.03;;;-1.02;59.67
12913;BME280;6524;51.368;11.984;2023-12-04T21:29:27;151417.53;;;-0.87;59.92
12913;BME280;6524;51.368;11.984;2023-12-04T21:34:27;151442.09;;;-0.78;59.59
12913;BME280;6524;51.368;11.984;2023-12-04T21:39:27;151385.22;;;-1.00;59.53
12913;BME280;6524;51.368;11.984;2023-12-04T21:44:30;151424.00;;;-0.85;59.76
12913;BME280;6524;51.368;11.984;2023-12-04T21:49:30;151324.44;;;-1.24;60.73
12913;BME280;6524;51.368;11.984;2023-12-04T21:54:31;151382.66;;;-1.01;60.74
12913;BME280;6524;51.368;11.984;2023-12-04T21:59:31;151382.66;;;-1.01;60.82
12913;BME280;6524;51.368;11.984;2023-12-04T22:04:32;151338.69;;;-1.19;61.25
12913;BME280;6524;51.368;11.984;2023-12-04T22:09:32;151385.22;;;-1.00;61.75
12913;BME280;6524;51.368;11.984;2023-12-04T22:14:32;151337.41;;;-1.19;61.87
12913;BME280;6524;51.368;11.984;2023-12-04T22:19:33;151389.06;;;-0.99;61.93
12913;BME280;6524;51.368;11.984;2023-12-04T22:24:33;151376.19;;;-1.04;61.84
12913;BME280;6524;51.368;11.984;2023-12-04T22:29:33;151361.94;;;-1.09;62.50
12913;BME280;6524;51.368;11.984;2023-12-04T22:34:34;151398.16;;;-0.95;61.72
12913;BME280;6524;51.368;11.984;2023-12-04T22:39:35;151381.38;;;-1.02;62.38
12913;BME280;6524;51.368;11.984;2023-12-04T22:44:35;151360.66;;;-1.10;61.81
12913;BME280;6524;51.368;11.984;2023-12-04T22:49:37;151345.16;;;-1.16;62.17
12913;BME280;6524;51.368;11.984;2023-12-04T22:54:37;151299.91;;;-1.34;61.78
12913;BME280;6524;51.368;11.984;2023-12-04T22:59:38;151318.03;;;-1.27;61.59
12913;BME280;6524;51.368;11.984;2023-12-04T23:04:39;151338.69;;;-1.19;61.87
12913;BME280;6524;51.368;11.984;2023-12-04T23:09:40;151328.34;;;-1.23;61.41
12913;BME280;6524;51.368;11.984;2023-12-04T23:14:40;151284.38;;;-1.40;62.25
12913;BME280;6524;51.368;11.984;2023-12-04T23:19:40;151292.16;;;-1.37;62.13
12913;BME280;6524;51.368;11.984;2023-12-04T23:24:41;151283.09;;;-1.41;61.97
12913;BME280;6524;51.368;11.984;2023-12-04T23:29:41;151380.03;;;-1.02;60.98
12913;BME280;6524;51.368;11.984;2023-12-04T23:34:42;151227.56;;;-1.63;62.49
12913;BME280;6524;51.368;11.984;2023-12-04T23:39:42;151226.25;;;-1.63;61.99
12913;BME280;6524;51.368;11.984;2023-12-04T23:44:42;151305.09;;;-1.32;61.78
12913;BME280;6524;51.368;11.984;2023-12-04T23:49:43;151263.75;;;-1.48;61.96
12913;BME280;6524;51.368;11.984;2023-12-04T23:54:43;151201.72;;;-1.73;62.29
12913;BME280;6524;51.368;11.984;2023-12-04T23:59:43;151288.28;;;-1.39;61.62
